Time;durP1;ratioP1;P1;durP2;ratioP2;P2;SDS_P1;SDS_P2;PMS_P1;PMS_P2;Temp;Humidity;BMP_temperature;BMP_pressure;BME280_temperature;BME280_humidity;BME280_pressure;Samples;Min_cycle;Max_cycle;Signal;HPM_P1;HPM_P2
2022/03/28 00:00:25;;;;;;;9.83;2.97;;;7.30;1.00;;;;;;5034795;28;20247;-65
2022/03/28 00:02:51;;;;;;;3.07;2.87;;;7.30;1.00;;;;;;5035386;28;20497;-62
2022/03/28 00:05:17;;;;;;;3.70;3.07;;;7.30;1.00;;;;;;5035491;28;20871;-66
2022/03/28 00:07:43;;;;;;;3.77;3.47;;;7.30;1.00;;;;;;5035597;28;20426;-65
2022/03/28 00:10:10;;;;;;;3.07;2.77;;;7.40;1.00;;;;;;5034594;28;20173;-64
2022/03/28 00:12:38;;;;;;;3.17;2.50;;;7.30;1.00;;;;;;5035197;28;20445;-62
2022/03/28 00:15:05;;;;;;;4.17;3.77;;;7.30;1.00;;;;;;5034852;28;20417;-65
2022/03/28 00:17:32;;;;;;;3.30;3.10;;;7.30;1.00;;;;;;5035440;28;20428;-62
2022/03/28 00:19:59;;;;;;;2.80;2.60;;;7.30;1.00;;;;;;5034385;28;20429;-66
2022/03/28 00:22:25;;;;;;;4.13;3.07;;;7.30;1.00;;;;;;5034927;28;20426;-61
2022/03/28 00:24:50;;;;;;;3.20;3.00;;;7.20;1.00;;;;;;5035205;28;20406;-66
2022/03/28 00:27:17;;;;;;;5.10;3.57;;;7.20;1.00;;;;;;5035101;28;20171;-66
2022/03/28 00:29:44;;;;;;;5.00;3.80;;;7.20;1.00;;;;;;5034390;28;20180;-62
2022/03/28 00:32:10;;;;;;;2.90;2.70;;;7.10;1.00;;;;;;5034957;28;20408;-66
2022/03/28 00:34:36;;;;;;;4.90;2.60;;;7.10;1.00;;;;;;5034872;28;20464;-65
2022/03/28 00:37:02;;;;;;;3.53;2.67;;;7.10;1.00;;;;;;5034791;28;20410;-65
2022/03/28 00:39:27;;;;;;;3.87;3.57;;;7.10;1.00;;;;;;5034121;28;20192;-62
2022/03/28 00:41:54;;;;;;;3.47;3.17;;;7.10;1.00;;;;;;5034668;28;20529;-66
2022/03/28 00:44:19;;;;;;;4.37;3.33;;;7.00;1.00;;;;;;5034707;28;20250;-62
2022/03/28 00:46:45;;;;;;;4.03;3.27;;;7.00;1.00;;;;;;5034588;28;20537;-61
2022/03/28 00:49:11;;;;;;;3.27;2.50;;;7.10;1.00;;;;;;5034079;28;20171;-61
2022/03/28 00:51:37;;;;;;;2.80;2.60;;;7.10;1.00;;;;;;5034514;28;20203;-61
2022/03/28 00:54:04;;;;;;;4.63;3.30;;;7.10;1.00;;;;;;5034511;28;20486;-62
2022/03/28 00:56:29;;;;;;;7.23;3.40;;;7.10;1.00;;;;;;5034425;28;20481;-66
2022/03/28 00:58:55;;;;;;;5.47;2.67;;;7.00;1.00;;;;;;5033682;28;20922;-62
2022/03/28 01:01:21;;;;;;;3.10;2.80;;;7.10;1.00;;;;;;5034477;28;20191;-65
2022/03/28 01:03:46;;;;;;;5.03;2.93;;;7.10;1.00;;;;;;5034357;28;20409;-62
2022/03/28 01:06:12;;;;;;;3.20;3.00;;;7.00;1.00;;;;;;5034184;28;20233;-62
2022/03/28 01:08:38;;;;;;;5.73;2.47;;;7.00;1.00;;;;;;5033431;28;20561;-62
2022/03/28 01:11:06;;;;;;;4.47;3.20;;;7.00;1.00;;;;;;5034048;28;20505;-62
2022/03/28 01:13:33;;;;;;;5.07;2.80;;;7.00;1.00;;;;;;5034280;28;20221;-62
2022/03/28 01:15:59;;;;;;;3.40;3.10;;;7.00;1.00;;;;;;5034354;28;20410;-66
2022/03/28 01:18:26;;;;;;;3.90;3.60;;;7.00;1.00;;;;;;5033832;28;20472;-64
2022/03/28 01:20:56;;;;;;;3.93;3.60;;;6.90;1.00;;;;;;5033502;28;20407;-62
2022/03/28 01:23:22;;;;;;;5.73;3.80;;;6.90;1.00;;;;;;5034078;28;20961;-66
2022/03/28 01:25:53;;;;;;;4.40;2.97;;;6.90;1.00;;;;;;5033609;28;20399;-65
2022/03/28 01:28:20;;;;;;;4.17;3.00;;;6.90;1.00;;;;;;5033921;28;20221;-61
2022/03/28 01:30:46;;;;;;;8.20;3.33;;;6.80;1.00;;;;;;5033370;28;20442;-63
2022/03/28 01:33:12;;;;;;;3.37;3.07;;;6.70;1.00;;;;;;5033827;28;20427;-62
2022/03/28 01:35:40;;;;;;;3.80;3.23;;;6.80;1.00;;;;;;5033829;28;20462;-62
2022/03/28 01:38:08;;;;;;;5.30;3.80;;;6.90;1.00;;;;;;5033732;28;20437;-62
2022/03/28 01:40:37;;;;;;;5.13;3.13;;;6.80;1.00;;;;;;5033070;28;20402;-66
2022/03/28 01:43:03;;;;;;;3.80;3.20;;;6.80;1.00;;;;;;5033562;28;20457;-65
2022/03/28 01:45:29;;;;;;;4.50;3.00;;;6.90;1.00;;;;;;5033762;28;20399;-62
2022/03/28 01:47:54;;;;;;;3.00;2.70;;;6.90;1.00;;;;;;5033638;28;20898;-65
2022/03/28 01:50:21;;;;;;;4.03;3.73;;;7.00;1.00;;;;;;5032913;28;20175;-66
2022/03/28 01:52:47;;;;;;;4.80;2.97;;;7.00;1.00;;;;;;5033421;28;20203;-62
2022/03/28 01:55:14;;;;;;;4.37;3.10;;;6.90;1.00;;;;;;5033431;28;20402;-66
2022/03/28 01:57:41;;;;;;;5.33;3.30;;;7.00;1.00;;;;;;5033580;28;20546;-61
2022/03/28 02:00:13;;;;;;;3.23;2.97;;;6.90;1.00;;;;;;5032666;28;20465;-65
2022/03/28 02:02:38;;;;;;;5.20;2.90;;;6.90;1.00;;;;;;5033267;28;20418;-64
2022/03/28 02:05:05;;;;;;;3.63;2.37;;;6.80;1.00;;;;;;5033256;28;20456;-62
2022/03/28 02:07:31;;;;;;;3.13;2.93;;;6.70;1.00;;;;;;5033305;28;20180;-62
2022/03/28 02:09:56;;;;;;;3.57;3.23;;;6.70;1.00;;;;;;5031401;28;20421;-61
2022/03/28 02:12:22;;;;;;;3.57;3.37;;;6.60;1.00;;;;;;5033300;28;20199;-62
2022/03/28 02:14:48;;;;;;;3.57;3.27;;;6.70;1.00;;;;;;5033413;28;20176;-65
2022/03/28 02:17:14;;;;;;;3.17;2.97;;;6.70;1.00;;;;;;5033096;28;20439;-62
2022/03/28 02:19:39;;;;;;;6.60;3.83;;;6.70;1.00;;;;;;5032777;28;20207;-65
2022/03/28 02:22:05;;;;;;;3.70;3.50;;;6.70;1.00;;;;;;5033240;28;20194;-62
2022/03/28 02:24:31;;;;;;;3.53;3.20;;;6.50;1.00;;;;;;5033271;28;20225;-66
2022/03/28 02:26:57;;;;;;;2.90;2.70;;;6.50;1.00;;;;;;5033184;28;20250;-62
2022/03/28 02:29:22;;;;;;;4.27;3.23;;;6.40;1.00;;;;;;5032510;28;20648;-62
2022/03/28 02:31:48;;;;;;;3.23;2.87;;;6.30;1.00;;;;;;5032617;28;20429;-61
2022/03/28 02:34:14;;;;;;;4.80;2.57;;;6.30;1.00;;;;;;5032383;28;20171;-62
2022/03/28 02:36:40;;;;;;;2.73;2.60;;;6.30;1.00;;;;;;5032148;28;20494;-65
2022/03/28 02:39:06;;;;;;;3.10;2.90;;;6.30;1.00;;;;;;5035714;28;20448;-62
2022/03/28 02:41:31;;;;;;;3.03;2.83;;;6.20;1.00;;;;;;5036927;28;20196;-62
2022/03/28 02:43:57;;;;;;;5.80;3.30;;;6.20;1.00;;;;;;5037168;28;20407;-65
2022/03/28 02:46:23;;;;;;;3.53;3.00;;;6.20;1.00;;;;;;5036917;28;20250;-62
2022/03/28 02:48:49;;;;;;;3.83;3.33;;;6.30;1.00;;;;;;5036286;28;20537;-66
2022/03/28 02:51:14;;;;;;;3.37;3.17;;;6.40;1.00;;;;;;5036799;28;20409;-62
2022/03/28 02:53:40;;;;;;;3.00;2.80;;;6.20;1.00;;;;;;5036784;28;20172;-65
2022/03/28 02:56:05;;;;;;;3.00;2.80;;;6.30;1.00;;;;;;5035536;28;20206;-62
2022/03/28 02:58:32;;;;;;;3.00;2.80;;;6.30;1.00;;;;;;5036073;28;20231;-66
2022/03/28 03:00:57;;;;;;;4.73;3.30;;;6.30;1.00;;;;;;5036458;28;20615;-63
2022/03/28 03:03:23;;;;;;;3.27;3.07;;;6.20;1.00;;;;;;5036624;28;20490;-64
2022/03/28 03:05:52;;;;;;;4.90;3.40;;;6.20;1.00;;;;;;5036515;28;20256;-66
2022/03/28 03:08:18;;;;;;;4.13;3.37;;;6.20;1.00;;;;;;5036475;28;20182;-66
2022/03/28 03:10:44;;;;;;;3.33;2.87;;;6.00;1.00;;;;;;5035812;28;20402;-65
2022/03/28 03:13:10;;;;;;;3.10;2.90;;;6.00;1.00;;;;;;5036350;28;20192;-61
2022/03/28 03:15:36;;;;;;;3.80;3.50;;;6.10;1.00;;;;;;5036266;28;20398;-66
2022/03/28 03:18:04;;;;;;;3.30;3.07;;;6.10;1.00;;;;;;5035089;28;20651;-62
2022/03/28 03:20:31;;;;;;;3.43;3.23;;;6.20;1.00;;;;;;5035649;28;20485;-62
2022/03/28 03:22:56;;;;;;;5.60;3.63;;;6.20;1.00;;;;;;5036259;28;20422;-61
2022/03/28 03:25:22;;;;;;;8.00;3.20;;;6.30;1.00;;;;;;5036252;28;20398;-65
2022/03/28 03:27:51;;;;;;;3.37;3.17;;;6.20;1.00;;;;;;5036180;28;20659;-62
2022/03/28 03:30:18;;;;;;;4.03;2.60;;;6.20;1.00;;;;;;5035475;28;20172;-62
2022/03/28 03:32:44;;;;;;;3.20;3.07;;;6.10;1.00;;;;;;5036206;28;20437;-62
2022/03/28 03:35:10;;;;;;;2.87;2.67;;;6.20;1.00;;;;;;5036201;28;20415;-61
2022/03/28 03:37:36;;;;;;;2.87;2.67;;;6.10;1.00;;;;;;5035942;28;20410;-63
2022/03/28 03:40:03;;;;;;;3.10;2.90;;;6.20;1.00;;;;;;5035121;28;20454;-66
2022/03/28 03:42:31;;;;;;;3.33;3.03;;;6.20;1.00;;;;;;5035816;28;20422;-66
2022/03/28 03:44:57;;;;;;;2.70;2.50;;;6.10;1.00;;;;;;5035911;28;20402;-62
2022/03/28 03:47:23;;;;;;;2.87;2.50;;;6.10;1.00;;;;;;5035987;28;20404;-62
2022/03/28 03:49:48;;;;;;;2.90;2.70;;;6.20;1.00;;;;;;5034358;28;20868;-62
2022/03/28 03:52:14;;;;;;;2.43;2.23;;;6.20;1.00;;;;;;5035620;28;20207;-62
2022/03/28 03:54:39;;;;;;;2.60;2.50;;;6.20;1.00;;;;;;5034668;28;20176;-62
2022/03/28 03:57:05;;;;;;;2.80;2.63;;;6.20;1.00;;;;;;5035664;28;20211;-62
2022/03/28 03:59:31;;;;;;;2.70;2.60;;;6.20;1.00;;;;;;5034838;28;20200;-65
2022/03/28 04:01:56;;;;;;;3.00;2.77;;;6.30;1.00;;;;;;5035384;28;20195;-67
2022/03/28 04:04:22;;;;;;;2.60;2.50;;;6.30;1.00;;;;;;5035479;28;20180;-62
2022/03/28 04:06:48;;;;;;;2.17;2.07;;;6.40;1.00;;;;;;5035437;28;20236;-66
2022/03/28 04:09:14;;;;;;;3.07;2.30;;;6.40;1.00;;;;;;5034788;28;20183;-66
2022/03/28 04:11:39;;;;;;;2.33;2.20;;;6.40;1.00;;;;;;5035314;28;20314;-62
2022/03/28 04:14:05;;;;;;;2.13;2.03;;;6.40;1.00;;;;;;5035166;28;20489;-64
2022/03/28 04:16:31;;;;;;;2.70;2.50;;;6.40;1.00;;;;;;5035242;28;20655;-66
2022/03/28 04:18:56;;;;;;;2.63;2.43;;;6.40;1.00;;;;;;5034585;28;20277;-62
2022/03/28 04:21:22;;;;;;;3.30;2.50;;;6.40;1.00;;;;;;5035083;28;20195;-62
2022/03/28 04:23:47;;;;;;;2.60;2.27;;;6.40;1.00;;;;;;5035335;28;20213;-61
2022/03/28 04:26:14;;;;;;;2.97;2.53;;;6.30;1.00;;;;;;5035043;28;20530;-66
2022/03/28 04:28:39;;;;;;;2.70;2.53;;;6.30;1.00;;;;;;5034426;28;20167;-66
2022/03/28 04:31:05;;;;;;;2.50;2.30;;;6.20;1.00;;;;;;5035004;28;20413;-62
2022/03/28 04:33:31;;;;;;;4.33;2.77;;;6.10;1.00;;;;;;5034989;28;20182;-65
2022/03/28 04:35:56;;;;;;;3.83;3.43;;;6.10;1.00;;;;;;5034963;28;20176;-62
2022/03/28 04:38:24;;;;;;;2.90;2.70;;;6.10;1.00;;;;;;5034543;28;20929;-62
2022/03/28 04:40:51;;;;;;;3.77;3.37;;;6.10;1.00;;;;;;5034334;28;20164;-62
2022/03/28 04:43:16;;;;;;;3.43;2.93;;;6.20;1.00;;;;;;5034723;28;20910;-62
2022/03/28 04:45:42;;;;;;;3.57;3.27;;;6.20;1.00;;;;;;5034791;28;20432;-66
2022/03/28 04:48:08;;;;;;;2.50;2.30;;;6.20;1.00;;;;;;5034607;28;20225;-62
2022/03/28 04:50:33;;;;;;;4.13;2.80;;;6.30;1.00;;;;;;5033997;28;20187;-62
2022/03/28 04:52:59;;;;;;;4.70;3.53;;;6.20;1.00;;;;;;5034730;28;20521;-65
2022/03/28 04:55:25;;;;;;;2.17;2.07;;;6.20;1.00;;;;;;5033488;28;20179;-65
2022/03/28 04:57:51;;;;;;;10.53;6.20;;;6.20;1.00;;;;;;5034364;28;20806;-63
2022/03/28 05:00:17;;;;;;;3.70;3.37;;;6.30;1.00;;;;;;5033127;28;20906;-65
2022/03/28 05:02:43;;;;;;;3.60;3.30;;;6.30;1.00;;;;;;5033404;28;20437;-68
2022/03/28 05:05:10;;;;;;;3.40;3.10;;;6.30;1.00;;;;;;5034245;28;20398;-68
2022/03/28 05:07:36;;;;;;;3.30;3.00;;;6.30;1.00;;;;;;5033419;28;20429;-68
2022/03/28 05:10:03;;;;;;;2.27;2.17;;;6.30;1.00;;;;;;5032721;28;20406;-65
2022/03/28 05:12:29;;;;;;;2.20;1.90;;;6.30;1.00;;;;;;5033097;28;20468;-67
2022/03/28 05:14:55;;;;;;;1.83;1.73;;;6.20;1.00;;;;;;5033193;28;20402;-67
2022/03/28 05:17:25;;;;;;;2.40;2.20;;;6.10;1.00;;;;;;5033489;28;20175;-67
2022/03/28 05:19:52;;;;;;;2.30;2.10;;;6.20;1.00;;;;;;5032620;28;20458;-64
2022/03/28 05:22:19;;;;;;;2.07;1.97;;;6.10;1.00;;;;;;5033139;28;20512;-68
2022/03/28 05:24:45;;;;;;;2.97;2.87;;;6.10;1.00;;;;;;5033185;28;20756;-65
2022/03/28 05:27:11;;;;;;;1.73;1.63;;;6.00;1.00;;;;;;5033385;28;20452;-64
2022/03/28 05:29:37;;;;;;;1.60;1.50;;;6.00;1.00;;;;;;5032519;28;20406;-67
2022/03/28 05:32:03;;;;;;;1.80;1.70;;;6.00;1.00;;;;;;5033156;28;20426;-67
2022/03/28 05:34:30;;;;;;;2.00;1.90;;;6.10;1.00;;;;;;5033092;28;20183;-65
2022/03/28 05:37:00;;;;;;;1.73;1.63;;;6.20;1.00;;;;;;5033092;28;20763;-67
2022/03/28 05:39:26;;;;;;;1.70;1.60;;;6.20;1.00;;;;;;5032317;28;20445;-67
2022/03/28 05:41:52;;;;;;;2.03;1.93;;;6.20;1.00;;;;;;5032811;28;20427;-64
2022/03/28 05:44:19;;;;;;;5.53;1.93;;;6.20;1.00;;;;;;5032980;28;20402;-68
2022/03/28 05:46:45;;;;;;;1.80;1.70;;;6.10;1.00;;;;;;5032953;28;20391;-64
2022/03/28 05:49:11;;;;;;;1.70;1.60;;;6.20;1.00;;;;;;5032244;28;20414;-65
2022/03/28 05:51:37;;;;;;;2.13;2.03;;;6.30;1.00;;;;;;5031835;28;20434;-67
2022/03/28 05:54:02;;;;;;;1.87;1.77;;;6.30;1.00;;;;;;5032847;28;20300;-65
2022/03/28 05:56:28;;;;;;;4.37;2.20;;;6.30;1.00;;;;;;5032871;28;20525;-64
2022/03/28 05:58:54;;;;;;;3.73;2.10;;;6.20;1.00;;;;;;5031910;28;20656;-65
2022/03/28 06:01:19;;;;;;;2.27;2.17;;;6.30;1.00;;;;;;5032619;28;20623;-67
2022/03/28 06:03:45;;;;;;;1.77;1.67;;;6.30;1.00;;;;;;5032618;28;20179;-64
2022/03/28 06:06:11;;;;;;;2.25;2.13;;;6.40;1.00;;;;;;4982849;28;1435305;-65
2022/03/28 06:08:36;;;;;;;2.33;2.07;;;6.40;1.00;;;;;;5032671;28;20176;-65
2022/03/28 06:11:06;;;;;;;1.93;1.83;;;6.50;1.00;;;;;;5033166;28;20172;-69
2022/03/28 06:13:32;;;;;;;2.03;1.93;;;6.50;1.00;;;;;;5032887;28;20211;-67
2022/03/28 06:15:58;;;;;;;1.90;1.80;;;6.50;1.00;;;;;;5033373;28;20896;-65
2022/03/28 06:18:24;;;;;;;2.27;2.07;;;6.50;1.00;;;;;;5033008;28;20176;-65
2022/03/28 06:20:49;;;;;;;2.40;2.20;;;6.70;1.00;;;;;;5032262;28;20767;-65
2022/03/28 06:23:15;;;;;;;2.57;2.37;;;6.70;1.00;;;;;;5032587;28;20191;-65
2022/03/28 06:25:41;;;;;;;2.20;2.00;;;6.70;1.00;;;;;;5033515;28;20160;-68
2022/03/28 06:28:07;;;;;;;2.47;2.27;;;6.70;1.00;;;;;;5033302;28;20420;-64
2022/03/28 06:30:33;;;;;;;2.33;2.00;;;6.60;1.00;;;;;;5032543;28;20208;-64
2022/03/28 06:32:59;;;;;;;2.40;2.20;;;6.60;1.00;;;;;;5033201;28;20438;-67
2022/03/28 06:35:25;;;;;;;2.43;2.23;;;6.70;1.00;;;;;;5033189;28;20478;-69
2022/03/28 06:37:52;;;;;;;2.50;2.30;;;6.80;1.00;;;;;;5033226;28;20755;-65
2022/03/28 06:40:18;;;;;;;2.30;2.10;;;6.90;1.00;;;;;;5032434;28;20446;-64
2022/03/28 06:42:44;;;;;;;2.40;2.30;;;6.90;1.00;;;;;;5033089;28;20899;-64
2022/03/28 06:45:10;;;;;;;2.20;2.10;;;7.00;1.00;;;;;;5033079;28;20415;-65
2022/03/28 06:47:37;;;;;;;2.70;2.50;;;7.00;1.00;;;;;;5033106;28;20390;-68
2022/03/28 06:50:05;;;;;;;2.70;2.50;;;7.00;1.00;;;;;;5032453;28;20489;-65
2022/03/28 06:52:32;;;;;;;3.40;2.60;;;7.20;1.00;;;;;;5032925;28;20787;-65
2022/03/28 06:54:58;;;;;;;2.80;2.60;;;7.20;1.00;;;;;;5033021;28;20405;-64
2022/03/28 06:57:23;;;;;;;4.63;2.70;;;7.20;1.00;;;;;;5032843;28;20395;-65
2022/03/28 06:59:49;;;;;;;2.30;2.13;;;7.30;1.00;;;;;;5032190;28;20556;-67
2022/03/28 07:02:14;;;;;;;2.30;2.20;;;7.30;1.00;;;;;;5032822;28;20192;-68
2022/03/28 07:04:41;;;;;;;3.20;2.40;;;7.30;1.00;;;;;;5032931;28;20175;-65
2022/03/28 07:07:09;;;;;;;2.73;2.53;;;7.40;1.00;;;;;;5032763;28;20597;-64
2022/03/28 07:09:35;;;;;;;3.50;3.23;;;7.50;1.00;;;;;;5032085;28;20402;-69
2022/03/28 07:12:03;;;;;;;2.83;2.50;;;7.50;1.00;;;;;;5032674;28;20425;-64
2022/03/28 07:14:29;;;;;;;2.60;2.40;;;7.40;1.00;;;;;;5032752;28;20819;-64
2022/03/28 07:16:55;;;;;;;3.13;2.93;;;7.30;1.00;;;;;;5032789;28;20438;-64
2022/03/28 07:19:20;;;;;;;3.27;3.03;;;7.20;1.00;;;;;;5031940;28;20200;-67
2022/03/28 07:21:46;;;;;;;2.83;2.63;;;7.40;1.00;;;;;;5032452;28;20184;-69
2022/03/28 07:24:12;;;;;;;2.60;2.40;;;7.60;1.00;;;;;;5032963;28;20651;-68
2022/03/28 07:26:38;;;;;;;2.63;2.43;;;7.60;1.00;;;;;;5036194;28;20529;-64
2022/03/28 07:29:04;;;;;;;3.70;3.10;;;7.70;1.00;;;;;;5035583;28;20629;-68
2022/03/28 07:31:30;;;;;;;4.53;2.90;;;7.80;1.00;;;;;;5036131;28;20424;-69
2022/03/28 07:34:29;;;;;;;2.90;2.70;;;7.90;1.00;;;;;;5035958;28;20911;-65
2022/03/28 07:36:43;;;;;;;3.20;2.90;;;7.80;1.00;;;;;;5035963;28;20403;-64
2022/03/28 07:39:09;;;;;;;2.60;2.50;;;7.80;1.00;;;;;;5035434;28;20454;-69
2022/03/28 07:41:35;;;;;;;2.73;2.53;;;7.80;1.00;;;;;;5035904;28;20422;-65
2022/03/28 07:44:00;;;;;;;3.23;2.93;;;7.80;1.00;;;;;;5035963;28;20444;-65
2022/03/28 07:46:26;;;;;;;3.60;2.73;;;7.90;1.00;;;;;;5035950;28;20191;-68
2022/03/28 07:48:51;;;;;;;3.40;3.20;;;8.00;1.00;;;;;;5035252;28;20294;-69
2022/03/28 07:51:17;;;;;;;6.23;3.30;;;8.00;1.00;;;;;;5035729;28;20560;-64
2022/03/28 07:53:43;;;;;;;3.43;3.10;;;8.00;1.00;;;;;;5035834;28;20160;-65
2022/03/28 07:56:08;;;;;;;3.40;3.10;;;8.00;1.00;;;;;;5035699;28;20221;-68
2022/03/28 07:58:34;;;;;;;3.90;3.53;;;8.00;1.00;;;;;;5034978;28;20273;-65
2022/03/28 08:01:00;;;;;;;4.83;3.33;;;8.10;1.00;;;;;;5035458;28;20634;-64
2022/03/28 08:03:26;;;;;;;3.77;3.47;;;8.00;1.00;;;;;;5035544;28;20153;-68
2022/03/28 08:05:53;;;;;;;4.37;3.23;;;8.00;1.00;;;;;;5035311;28;20210;-68
2022/03/28 08:08:20;;;;;;;3.57;3.27;;;7.80;1.00;;;;;;5035582;28;20438;-68
2022/03/28 08:10:45;;;;;;;4.77;4.30;;;8.00;1.00;;;;;;5034869;28;20400;-64
2022/03/28 08:13:11;;;;;;;3.90;3.60;;;8.00;1.00;;;;;;5035290;28;20515;-69
2022/03/28 08:15:37;;;;;;;4.00;3.70;;;8.10;1.00;;;;;;5034194;28;20164;-69
2022/03/28 08:18:02;;;;;;;4.67;3.23;;;8.20;1.00;;;;;;5035130;28;20248;-69
2022/03/28 08:20:28;;;;;;;3.97;3.60;;;8.20;1.00;;;;;;5034451;28;20581;-68
2022/03/28 08:22:54;;;;;;;6.53;4.10;;;8.10;1.00;;;;;;5035058;28;20282;-68
2022/03/28 08:25:22;;;;;;;4.50;4.10;;;8.10;99.90;;;;;;5035216;28;20232;-68
2022/03/28 08:27:48;;;;;;;5.10;4.23;;;8.20;99.90;;;;;;5035017;28;20895;-64
2022/03/28 08:30:15;;;;;;;6.05;2.92;;;8.30;99.90;;;;;;5033453;28;20476;-64
2022/03/28 08:32:41;;;;;;;3.90;3.47;;;8.50;99.90;;;;;;5034927;28;20190;-64
2022/03/28 08:35:08;;;;;;;4.30;3.90;;;8.50;99.90;;;;;;5034604;28;20433;-64
2022/03/28 08:37:34;;;;;;;6.03;3.53;;;8.40;99.90;;;;;;5033993;28;20418;-68
2022/03/28 08:39:59;;;;;;;3.70;3.40;;;8.50;99.90;;;;;;5034266;28;20449;-65
2022/03/28 08:42:25;;;;;;;8.27;4.70;;;8.40;99.90;;;;;;5034555;28;20418;-64
2022/03/28 08:44:52;;;;;;;6.40;3.60;;;8.40;99.90;;;;;;5034739;28;20169;-64
2022/03/28 08:47:20;;;;;;;7.23;3.83;;;8.50;99.90;;;;;;5034787;28;20840;-64
2022/03/28 08:49:50;;;;;;;6.13;3.80;;;8.50;99.90;;;;;;5034143;28;20448;-67
2022/03/28 08:52:16;;;;;;;4.60;4.20;;;8.50;99.90;;;;;;5034395;28;20448;-64
2022/03/28 08:54:42;;;;;;;4.73;4.30;;;8.60;99.90;;;;;;5034595;28;20400;-64
2022/03/28 08:57:08;;;;;;;5.40;3.83;;;8.70;99.90;;;;;;5034627;28;20405;-65
2022/03/28 08:59:34;;;;;;;4.93;4.50;;;8.70;99.90;;;;;;5033911;28;20481;-64
2022/03/28 09:01:59;;;;;;;11.27;4.70;;;8.70;99.90;;;;;;5033381;28;20195;-64
2022/03/28 09:04:25;;;;;;;5.37;4.40;;;8.70;99.90;;;;;;5034290;28;20236;-64
2022/03/28 09:06:51;;;;;;;3.63;3.33;;;8.80;99.90;;;;;;5034260;28;20189;-64
2022/03/28 09:09:16;;;;;;;6.87;4.50;;;8.80;99.90;;;;;;5032678;28;20586;-68
2022/03/28 09:11:47;;;;;;;6.67;4.97;;;8.90;99.90;;;;;;5034240;28;20685;-68
2022/03/28 09:14:35;;;;;;;5.13;4.63;;;9.00;99.90;;;;;;5034228;28;20625;-66
2022/03/28 09:17:15;;;;;;;4.90;3.90;;;9.10;99.90;;;;;;5036680;28;20447;-68
2022/03/28 09:20:04;;;;;;;4.83;4.20;;;9.10;99.90;;;;;;5033460;28;20455;-68
2022/03/28 09:22:38;;;;;;;7.80;4.63;;;9.10;99.90;;;;;;5033871;28;20394;-64
2022/03/28 09:25:06;;;;;;;8.40;4.40;;;9.00;99.90;;;;;;5033953;28;20394;-64
2022/03/28 09:27:35;;;;;;;4.93;3.90;;;9.00;99.90;;;;;;5034237;28;20760;-68
2022/03/28 09:30:07;;;;;;;7.40;5.30;;;9.10;99.90;;;;;;5033401;28;20830;-64
2022/03/28 09:32:37;;;;;;;6.63;4.40;;;9.00;99.90;;;;;;5033728;28;20424;-65
2022/03/28 09:35:12;;;;;;;8.37;4.57;;;9.10;99.90;;;;;;5033768;28;20413;-64
2022/03/28 09:38:11;;;;;;;5.73;4.60;;;9.10;99.90;;;;;;5033950;28;20889;-64
2022/03/28 09:40:51;;;;;;;4.60;4.07;;;9.00;99.90;;;;;;5042597;28;20469;-64
2022/03/28 09:43:22;;;;;;;7.80;4.50;;;9.10;99.90;;;;;;5033673;28;20843;-64
2022/03/28 09:45:56;;;;;;;6.30;5.10;;;9.20;99.90;;;;;;5033897;28;20759;-64
2022/03/28 09:48:24;;;;;;;14.87;5.93;;;9.10;99.90;;;;;;5032974;28;20465;-69
2022/03/28 09:50:58;;;;;;;5.20;4.50;;;9.10;99.90;;;;;;5033088;28;20434;-65
2022/03/28 09:53:38;;;;;;;7.80;4.43;;;9.20;99.90;;;;;;5033600;28;20401;-66
2022/03/28 09:56:08;;;;;;;9.43;4.77;;;9.20;99.90;;;;;;5033689;28;20407;-64
2022/03/28 09:58:56;;;;;;;6.40;4.60;;;9.30;99.90;;;;;;5032829;28;20496;-68
2022/03/28 10:01:39;;;;;;;6.17;5.57;;;9.40;99.90;;;;;;5033456;28;20427;-64
2022/03/28 10:04:10;;;;;;;8.47;5.03;;;9.30;99.90;;;;;;5033489;28;20404;-64
2022/03/28 10:06:38;;;;;;;13.80;5.43;;;9.20;99.90;;;;;;5033397;28;20518;-68
2022/03/28 10:09:07;;;;;;;8.00;5.23;;;9.30;99.90;;;;;;5032325;28;20408;-64
2022/03/28 10:11:36;;;;;;;5.57;5.00;;;9.40;99.90;;;;;;5033391;28;20444;-68
2022/03/28 10:14:02;;;;;;;12.57;5.13;;;9.50;99.90;;;;;;5033436;28;20409;-68
2022/03/28 10:16:28;;;;;;;5.60;5.10;;;9.60;99.90;;;;;;5033284;28;20413;-64
2022/03/28 10:18:53;;;;;;;13.77;5.50;;;9.60;99.90;;;;;;5032667;28;20281;-68
2022/03/28 10:21:23;;;;;;;6.20;5.47;;;9.50;99.90;;;;;;5033131;28;20451;-69
2022/03/28 10:23:59;;;;;;;4.87;4.30;;;9.40;99.90;;;;;;5033231;28;20591;-69
2022/03/28 10:26:30;;;;;;;9.83;6.73;;;9.50;99.90;;;;;;5033313;28;20392;-64
2022/03/28 10:29:10;;;;;;;8.03;4.90;;;9.50;99.90;;;;;;5032534;28;20437;-67
2022/03/28 10:31:54;;;;;;;6.87;4.83;;;9.50;99.90;;;;;;5033274;28;20794;-64
2022/03/28 10:34:40;;;;;;;5.30;4.80;;;9.60;99.90;;;;;;5033153;28;20407;-68
2022/03/28 10:37:32;;;;;;;7.37;5.30;;;9.70;99.90;;;;;;5033059;28;20416;-63
2022/03/28 10:40:21;;;;;;;8.00;4.90;;;9.80;99.90;;;;;;5032521;28;20773;-69
2022/03/28 10:42:58;;;;;;;7.17;5.07;;;9.90;99.90;;;;;;5033083;28;20383;-68
2022/03/28 10:45:37;;;;;;;8.10;4.97;;;9.70;99.90;;;;;;5033165;28;20425;-64
2022/03/28 10:48:05;;;;;;;7.00;5.37;;;9.90;99.90;;;;;;5033225;28;20444;-68
2022/03/28 10:50:45;;;;;;;8.50;5.50;;;9.90;99.90;;;;;;5032406;28;20964;-64
2022/03/28 10:53:26;;;;;;;6.50;5.80;;;9.80;99.90;;;;;;5032992;28;20839;-69
2022/03/28 10:55:53;;;;;;;7.20;6.37;;;9.80;99.90;;;;;;5033281;28;20767;-64
2022/03/28 10:58:30;;;;;;;6.60;5.60;;;9.60;99.90;;;;;;5033435;28;20903;-65
2022/03/28 11:01:11;;;;;;;8.00;5.13;;;9.60;99.90;;;;;;5036870;28;20406;-64
2022/03/28 11:03:41;;;;;;;5.20;4.43;;;9.60;99.90;;;;;;5036694;28;20401;-64
2022/03/28 11:06:07;;;;;;;11.93;5.97;;;9.60;99.90;;;;;;5036728;28;20552;-68
2022/03/28 11:08:38;;;;;;;5.53;4.97;;;9.60;99.90;;;;;;5035974;28;20446;-69
2022/03/28 11:11:20;;;;;;;9.17;6.50;;;9.60;99.90;;;;;;5036469;28;20395;-64
2022/03/28 11:14:00;;;;;;;8.40;5.73;;;9.60;99.90;;;;;;5036380;28;20413;-68
2022/03/28 11:16:43;;;;;;;5.70;5.20;;;9.60;99.90;;;;;;5036483;28;20477;-68
2022/03/28 11:19:32;;;;;;;6.03;5.50;;;9.50;99.90;;;;;;5035759;28;20514;-68
2022/03/28 11:22:08;;;;;;;10.67;6.40;;;9.50;99.90;;;;;;5036365;28;20449;-64
2022/03/28 11:24:52;;;;;;;8.70;6.10;;;9.60;99.90;;;;;;5036371;28;20944;-69
2022/03/28 11:27:18;;;;;;;9.90;6.60;;;9.70;99.90;;;;;;5036125;28;20401;-67
2022/03/28 11:29:45;;;;;;;7.47;5.90;;;9.70;99.90;;;;;;5034140;28;20410;-68
2022/03/28 11:32:16;;;;;;;8.10;6.50;;;9.70;99.90;;;;;;5036074;28;20783;-67
2022/03/28 11:34:53;;;;;;;13.83;7.50;;;9.70;99.90;;;;;;5036174;28;20387;-68
2022/03/28 11:37:27;;;;;;;9.53;6.57;;;9.60;99.90;;;;;;5036015;28;20440;-63
2022/03/28 11:39:58;;;;;;;10.70;7.30;;;9.50;99.90;;;;;;5035149;28;20456;-68
2022/03/28 11:42:33;;;;;;;10.93;7.80;;;9.40;99.90;;;;;;5036284;28;20408;-64
2022/03/28 11:45:05;;;;;;;12.13;7.70;;;9.50;99.90;;;;;;5036034;28;20372;-63
2022/03/28 11:47:30;;;;;;;11.60;7.90;;;9.60;99.90;;;;;;5035927;28;20395;-68
2022/03/28 11:49:59;;;;;;;11.13;8.40;;;9.70;99.90;;;;;;5035109;28;20404;-68
2022/03/28 11:52:27;;;;;;;11.70;8.17;;;9.60;99.90;;;;;;5035768;28;20194;-64
2022/03/28 11:54:55;;;;;;;12.57;7.73;;;9.50;99.90;;;;;;5035760;28;20413;-64
2022/03/28 12:00:15;;;;;;;13.70;8.73;;;9.70;99.90;;;;;;5034911;28;20449;-68
2022/03/28 12:02:50;;;;;;;13.00;7.77;;;9.60;99.90;;;;;;5035603;28;20445;-64
2022/03/28 12:05:43;;;;;;;15.50;8.57;;;9.60;99.90;;;;;;5035726;28;20858;-64
2022/03/28 12:08:18;;;;;;;14.80;9.03;;;9.60;99.90;;;;;;5035500;28;20451;-68
2022/03/28 12:10:51;;;;;;;14.47;9.27;;;9.70;99.90;;;;;;5034204;28;20399;-68
2022/03/28 12:13:18;;;;;;;13.67;8.47;;;9.70;99.90;;;;;;5035392;28;20395;-64
2022/03/28 12:15:47;;;;;;;9.93;7.50;;;9.70;99.90;;;;;;5035393;28;20365;-67
2022/03/28 12:18:15;;;;;;;16.80;8.23;;;9.40;99.90;;;;;;5034013;28;20880;-67
2022/03/28 12:20:43;;;;;;;17.30;8.30;;;9.30;99.90;;;;;;5034610;28;21027;-68
2022/03/28 12:23:12;;;;;;;14.30;8.13;;;9.20;99.90;;;;;;5035183;28;20426;-64
2022/03/28 12:25:45;;;;;;;12.93;8.17;;;9.30;99.90;;;;;;5035172;28;20405;-68
2022/03/28 12:28:15;;;;;;;9.80;7.80;;;9.30;99.90;;;;;;5035009;28;20395;-68
2022/03/28 12:30:44;;;;;;;9.77;7.57;;;9.30;99.90;;;;;;5034389;28;20397;-63
2022/03/28 12:33:15;;;;;;;7.43;6.30;;;9.20;99.90;;;;;;5035043;28;20410;-64
2022/03/28 12:35:43;;;;;;;9.80;7.10;;;9.10;99.90;;;;;;5034997;28;20405;-64
2022/03/28 12:38:16;;;;;;;17.07;7.53;;;9.20;99.90;;;;;;5034805;28;20413;-68
2022/03/28 12:40:44;;;;;;;11.63;6.77;;;9.20;99.90;;;;;;5034183;28;20502;-64
2022/03/28 12:43:11;;;;;;;11.57;7.70;;;9.20;99.90;;;;;;5035019;28;20438;-68
2022/03/28 12:45:42;;;;;;;11.73;8.00;;;9.10;99.90;;;;;;5034904;28;20367;-68
2022/03/28 12:48:09;;;;;;;10.07;6.73;;;9.00;99.90;;;;;;5034822;28;20396;-64
2022/03/28 12:50:35;;;;;;;11.37;6.20;;;8.90;99.90;;;;;;5034132;28;20413;-68
2022/03/28 12:53:09;;;;;;;12.70;7.50;;;8.90;99.90;;;;;;5034695;28;20436;-68
2022/03/28 12:55:34;;;;;;;11.63;7.40;;;8.90;99.90;;;;;;5034655;28;20402;-68
2022/03/28 12:58:01;;;;;;;7.00;6.20;;;8.80;99.90;;;;;;5034663;28;20722;-66
2022/03/28 13:00:27;;;;;;;9.10;7.03;;;8.80;99.90;;;;;;5033831;28;20195;-68
2022/03/28 13:02:53;;;;;;;8.10;6.53;;;8.80;99.90;;;;;;5034428;28;20806;-64
2022/03/28 13:05:19;;;;;;;7.73;5.60;;;8.80;99.90;;;;;;5034436;28;20395;-68
2022/03/28 13:07:47;;;;;;;9.20;5.50;;;8.80;99.90;;;;;;5034281;28;20902;-67
2022/03/28 13:10:21;;;;;;;9.03;6.23;;;8.80;99.90;;;;;;5033719;28;20946;-69